Time;durP1;ratioP1;P1;durP2;ratioP2;P2;SDS_P1;SDS_P2;PMS_P1;PMS_P2;Temp;Humidity;BMP_temperature;BMP_pressure;BME280_temperature;BME280_humidity;BME280_pressure;Samples;Min_cycle;Max_cycle;Signal;HPM_P1;HPM_P2
2021/12/31 00:00:09;;;;;;;4.10;2.60;;;13.60;99.90;;;;;;5033267;28;21056;-78
2021/12/31 00:02:36;;;;;;;6.87;2.80;;;13.60;99.90;;;;;;5034017;28;20590;-77
2021/12/31 00:05:03;;;;;;;10.00;3.00;;;13.60;99.90;;;;;;5033788;28;20495;-78
2021/12/31 00:07:31;;;;;;;6.90;2.70;;;13.60;99.90;;;;;;5037847;28;20459;-78
2021/12/31 00:10:00;;;;;;;4.50;2.50;;;13.60;99.90;;;;;;5035462;28;20476;-79
2021/12/31 00:12:30;;;;;;;5.70;2.50;;;13.60;99.90;;;;;;5037412;28;20461;-79
2021/12/31 00:14:58;;;;;;;5.70;2.57;;;13.60;99.90;;;;;;5039849;28;20476;-79
2021/12/31 00:17:26;;;;;;;9.93;3.00;;;13.60;99.90;;;;;;5034413;28;20509;-78
2021/12/31 00:20:00;;;;;;;6.00;2.90;;;13.70;99.90;;;;;;5035187;28;20532;-79
2021/12/31 00:23:00;;;;;;;5.67;2.30;;;13.70;99.90;;;;;;5036386;28;20463;-79
2021/12/31 00:25:27;;;;;;;4.33;2.20;;;13.70;99.90;;;;;;5022729;28;20495;-79
2021/12/31 00:27:54;;;;;;;9.57;2.60;;;13.60;99.90;;;;;;5039398;28;20465;-79
2021/12/31 00:30:21;;;;;;;6.20;2.50;;;13.70;99.90;;;;;;5034314;28;20811;-79
2021/12/31 00:32:49;;;;;;;3.67;2.43;;;13.70;99.90;;;;;;5039742;28;20455;-79
2021/12/31 00:35:16;;;;;;;5.73;3.00;;;13.70;99.90;;;;;;5034519;28;20464;-79
2021/12/31 00:37:43;;;;;;;7.30;2.20;;;13.70;99.90;;;;;;5035915;28;20549;-79
2021/12/31 00:40:13;;;;;;;6.30;2.13;;;13.70;99.90;;;;;;5033685;28;20515;-79
2021/12/31 00:42:40;;;;;;;6.33;2.00;;;13.80;99.90;;;;;;5034835;28;20455;-80
2021/12/31 00:45:10;;;;;;;7.13;2.20;;;13.80;99.90;;;;;;5034365;28;20489;-79
2021/12/31 00:47:37;;;;;;;5.73;2.07;;;13.80;99.90;;;;;;5035186;28;20454;-79
2021/12/31 00:50:06;;;;;;;3.10;1.60;;;13.80;99.90;;;;;;5034548;28;20458;-79
2021/12/31 00:52:33;;;;;;;6.10;2.23;;;13.80;99.90;;;;;;5033949;28;20450;-79
2021/12/31 00:55:00;;;;;;;3.80;2.00;;;13.90;99.90;;;;;;5046238;28;20469;-79
2021/12/31 00:57:27;;;;;;;3.90;1.97;;;13.90;99.90;;;;;;5049878;28;20448;-78
2021/12/31 00:59:54;;;;;;;3.73;1.87;;;13.90;99.90;;;;;;5041379;28;20523;-78
2021/12/31 01:02:22;;;;;;;6.03;1.80;;;14.00;99.90;;;;;;5033430;28;20543;-78
2021/12/31 01:04:49;;;;;;;6.37;1.90;;;13.90;99.90;;;;;;5033055;28;20499;-79
2021/12/31 01:07:17;;;;;;;4.03;1.90;;;14.00;99.90;;;;;;5034526;28;20456;-79
2021/12/31 01:09:44;;;;;;;4.17;2.47;;;14.00;99.90;;;;;;5033469;28;20459;-78
2021/12/31 01:12:13;;;;;;;5.93;1.97;;;14.00;99.90;;;;;;5033863;28;20508;-78
2021/12/31 01:14:44;;;;;;;6.67;2.10;;;14.00;99.90;;;;;;5033865;28;20470;-79
2021/12/31 01:17:15;;;;;;;7.23;2.07;;;14.00;99.90;;;;;;5034705;28;20911;-78
2021/12/31 01:19:48;;;;;;;11.73;2.47;;;14.00;99.90;;;;;;5030151;28;20464;-78
2021/12/31 01:22:18;;;;;;;5.43;1.43;;;14.00;99.90;;;;;;5027933;28;20449;-79
2021/12/31 01:24:45;;;;;;;5.77;1.90;;;14.10;99.90;;;;;;5029751;28;20488;-79
2021/12/31 01:27:13;;;;;;;8.30;2.00;;;14.10;99.90;;;;;;5033868;28;20468;-79
2021/12/31 01:29:40;;;;;;;4.23;1.47;;;14.10;99.90;;;;;;5028985;28;20816;-79
2021/12/31 01:32:08;;;;;;;4.23;1.70;;;14.10;99.90;;;;;;5028574;28;20461;-79
2021/12/31 01:34:35;;;;;;;5.17;2.00;;;14.10;99.90;;;;;;5031139;28;20486;-78
2021/12/31 01:37:01;;;;;;;4.47;1.77;;;14.20;99.90;;;;;;5033203;28;20476;-78
2021/12/31 01:39:30;;;;;;;2.97;1.40;;;14.20;99.90;;;;;;5033559;28;20838;-79
2021/12/31 01:41:58;;;;;;;3.10;1.40;;;14.20;99.90;;;;;;5028014;28;20461;-79
2021/12/31 01:44:33;;;;;;;5.40;1.63;;;14.20;99.90;;;;;;5029593;28;21022;-79
2021/12/31 01:47:04;;;;;;;4.33;1.23;;;14.20;99.90;;;;;;5027908;28;20847;-78
2021/12/31 01:49:35;;;;;;;6.20;2.40;;;14.20;99.90;;;;;;5030243;28;20993;-79
2021/12/31 01:52:02;;;;;;;5.13;1.40;;;14.20;99.90;;;;;;5033947;28;20884;-78
2021/12/31 01:54:31;;;;;;;7.73;1.67;;;14.20;99.90;;;;;;5028084;28;20463;-78
2021/12/31 01:57:01;;;;;;;3.17;1.60;;;14.20;99.90;;;;;;5028039;28;20448;-78
2021/12/31 01:59:28;;;;;;;3.53;1.53;;;14.20;99.90;;;;;;5030896;28;21075;-78
2021/12/31 02:01:56;;;;;;;7.80;1.83;;;14.20;99.90;;;;;;5036229;28;20837;-78
2021/12/31 02:04:23;;;;;;;4.07;1.80;;;14.20;99.90;;;;;;5036270;28;20520;-78
2021/12/31 02:06:50;;;;;;;3.70;2.23;;;14.20;99.90;;;;;;5036131;28;20490;-78
2021/12/31 02:09:17;;;;;;;2.33;1.40;;;14.30;99.90;;;;;;5037427;28;20849;-79
2021/12/31 02:11:45;;;;;;;3.23;1.40;;;14.20;99.90;;;;;;5036605;28;20554;-79
2021/12/31 02:14:12;;;;;;;3.00;1.53;;;14.30;99.90;;;;;;5049821;28;20486;-79
2021/12/31 02:16:38;;;;;;;3.97;1.50;;;14.20;99.90;;;;;;5044238;28;20449;-78
2021/12/31 02:19:12;;;;;;;4.20;2.40;;;14.20;99.90;;;;;;5036496;28;20459;-78
2021/12/31 02:21:43;;;;;;;4.43;1.73;;;14.20;99.90;;;;;;5036403;28;20479;-78
2021/12/31 02:24:10;;;;;;;8.27;1.30;;;14.20;99.90;;;;;;5030103;28;20476;-78
2021/12/31 02:26:37;;;;;;;6.23;1.70;;;14.20;99.90;;;;;;5026671;28;20499;-79
2021/12/31 02:29:04;;;;;;;2.67;1.40;;;14.20;99.90;;;;;;5039198;28;20476;-79
2021/12/31 02:31:31;;;;;;;2.77;1.87;;;14.30;99.90;;;;;;5035793;28;20460;-79
2021/12/31 02:33:58;;;;;;;4.80;1.30;;;14.30;99.90;;;;;;5035211;28;20502;-78
2021/12/31 02:36:25;;;;;;;4.03;1.63;;;14.30;99.90;;;;;;5037064;28;20453;-78
2021/12/31 02:38:53;;;;;;;5.63;1.90;;;14.30;99.90;;;;;;5037349;28;20476;-78
2021/12/31 02:41:20;;;;;;;6.77;1.63;;;14.30;99.90;;;;;;5041155;28;20463;-78
2021/12/31 02:43:47;;;;;;;5.10;1.57;;;14.30;99.90;;;;;;5027799;28;20475;-79
2021/12/31 02:46:13;;;;;;;5.87;1.63;;;14.30;99.90;;;;;;5036648;28;20954;-79
2021/12/31 02:48:40;;;;;;;5.37;1.70;;;14.30;99.90;;;;;;5037879;28;20535;-78
2021/12/31 02:51:07;;;;;;;3.63;1.50;;;14.30;99.90;;;;;;5037272;28;20500;-79
2021/12/31 02:53:38;;;;;;;5.30;1.63;;;14.30;99.90;;;;;;5037354;28;20491;-79
2021/12/31 02:56:08;;;;;;;3.40;1.70;;;14.30;99.90;;;;;;5036446;28;20452;-79
2021/12/31 02:58:36;;;;;;;4.13;1.40;;;14.30;99.90;;;;;;5016938;28;20452;-79
2021/12/31 03:01:05;;;;;;;3.10;1.50;;;14.30;99.90;;;;;;5035047;28;20555;-79
2021/12/31 03:03:35;;;;;;;3.03;1.37;;;14.30;99.90;;;;;;5036286;28;20479;-79
2021/12/31 03:06:03;;;;;;;3.10;1.80;;;14.20;99.90;;;;;;5044585;28;20489;-79
2021/12/31 03:08:31;;;;;;;6.30;1.83;;;14.30;99.90;;;;;;5036707;28;20467;-79
2021/12/31 03:11:01;;;;;;;8.57;1.67;;;14.30;99.90;;;;;;5041953;28;20454;-79
2021/12/31 03:13:30;;;;;;;2.07;1.27;;;14.30;99.90;;;;;;5045278;28;20482;-78
2021/12/31 03:16:00;;;;;;;4.60;1.47;;;14.30;99.90;;;;;;5035601;28;20968;-78
2021/12/31 03:18:27;;;;;;;5.87;1.33;;;14.30;99.90;;;;;;5038728;28;20458;-76
2021/12/31 03:21:01;;;;;;;3.57;1.77;;;14.30;99.90;;;;;;5036384;28;20534;-78
2021/12/31 03:23:29;;;;;;;3.30;1.50;;;14.30;99.90;;;;;;5035815;28;20482;-79
2021/12/31 03:25:56;;;;;;;4.70;1.63;;;14.30;99.90;;;;;;5035833;28;20483;-78
2021/12/31 03:28:23;;;;;;;2.93;1.47;;;14.30;99.90;;;;;;5036745;28;20479;-79
2021/12/31 03:30:52;;;;;;;3.40;1.40;;;14.30;99.90;;;;;;5052342;28;20874;-78
2021/12/31 03:33:19;;;;;;;3.80;1.47;;;14.40;99.90;;;;;;5049750;28;20492;-79
2021/12/31 03:35:46;;;;;;;4.17;1.60;;;14.40;99.90;;;;;;5035580;28;20447;-79
2021/12/31 03:38:13;;;;;;;3.60;1.30;;;14.40;99.90;;;;;;5036143;28;20456;-79
2021/12/31 03:40:40;;;;;;;3.77;1.40;;;14.40;99.90;;;;;;5035867;28;20450;-78
2021/12/31 03:43:08;;;;;;;2.93;1.30;;;14.30;99.90;;;;;;5035675;28;20471;-79
2021/12/31 03:45:35;;;;;;;2.80;1.30;;;14.30;99.90;;;;;;5041248;28;20881;-79
2021/12/31 03:48:03;;;;;;;3.50;1.43;;;14.40;99.90;;;;;;5035521;28;20509;-79
2021/12/31 03:50:30;;;;;;;3.07;1.23;;;14.40;99.90;;;;;;5038576;28;20466;-78
2021/12/31 03:52:57;;;;;;;3.20;1.40;;;14.40;99.90;;;;;;5035616;28;20462;-78
2021/12/31 03:55:24;;;;;;;5.50;2.53;;;14.40;99.90;;;;;;5035797;28;20817;-78
2021/12/31 03:57:50;;;;;;;4.00;1.90;;;14.40;99.90;;;;;;5035094;28;20463;-79
2021/12/31 04:00:18;;;;;;;9.30;3.50;;;14.40;99.90;;;;;;5033581;28;20462;-78
2021/12/31 04:02:45;;;;;;;5.57;2.67;;;14.40;99.90;;;;;;5041264;28;20489;-78
2021/12/31 04:05:13;;;;;;;3.40;1.57;;;14.40;99.90;;;;;;5043969;28;20448;-78
2021/12/31 04:07:39;;;;;;;6.43;1.77;;;14.40;99.90;;;;;;5035122;28;20456;-78
2021/12/31 04:10:07;;;;;;;2.47;1.20;;;14.40;99.90;;;;;;5020253;28;20456;-79
2021/12/31 04:12:33;;;;;;;2.50;1.30;;;14.40;99.90;;;;;;5045857;28;20461;-78
2021/12/31 04:15:00;;;;;;;4.00;1.43;;;14.40;99.90;;;;;;5040384;28;20458;-78
2021/12/31 04:17:27;;;;;;;3.83;1.40;;;14.40;99.90;;;;;;5058382;28;20515;-78
2021/12/31 04:19:56;;;;;;;2.97;1.60;;;14.40;99.90;;;;;;5037866;28;20445;-79
2021/12/31 04:22:27;;;;;;;3.00;1.40;;;14.40;99.90;;;;;;5040100;28;20476;-78
2021/12/31 04:24:54;;;;;;;2.27;1.47;;;14.40;99.90;;;;;;5035755;28;20484;-79
2021/12/31 04:27:22;;;;;;;5.17;1.57;;;14.40;99.90;;;;;;5053649;28;20488;-78
2021/12/31 04:29:52;;;;;;;3.17;1.30;;;14.40;99.90;;;;;;5036680;28;20458;-79
2021/12/31 04:32:20;;;;;;;6.00;1.50;;;14.40;99.90;;;;;;5034412;28;20460;-79
2021/12/31 04:34:47;;;;;;;3.40;1.30;;;14.30;99.90;;;;;;5035385;28;20486;-79
2021/12/31 04:37:14;;;;;;;4.93;1.50;;;14.30;99.90;;;;;;5034518;28;20455;-79
2021/12/31 04:39:42;;;;;;;6.17;2.23;;;14.30;99.90;;;;;;5047531;28;20459;-79
2021/12/31 04:42:09;;;;;;;5.67;1.70;;;14.40;99.90;;;;;;5033828;28;20445;-79
2021/12/31 04:44:36;;;;;;;6.77;1.90;;;14.40;99.90;;;;;;5035208;28;21000;-79
2021/12/31 04:47:03;;;;;;;3.20;1.40;;;14.40;99.90;;;;;;5038408;28;20485;-79
2021/12/31 04:49:29;;;;;;;5.50;1.40;;;14.40;99.90;;;;;;5054952;28;20966;-78
2021/12/31 04:51:56;;;;;;;6.77;1.60;;;14.40;99.90;;;;;;5045684;28;20460;-78
2021/12/31 04:54:23;;;;;;;6.80;1.50;;;14.30;99.90;;;;;;5032648;28;20472;-79
2021/12/31 04:56:53;;;;;;;2.30;1.20;;;14.30;99.90;;;;;;5035540;28;20459;-78
2021/12/31 04:59:20;;;;;;;3.40;1.20;;;14.30;99.90;;;;;;5040690;28;20468;-78
2021/12/31 05:01:48;;;;;;;4.20;1.30;;;14.30;99.90;;;;;;5038415;28;20450;-78
2021/12/31 05:04:16;;;;;;;5.97;1.60;;;14.30;99.90;;;;;;5041417;28;20485;-78
2021/12/31 05:06:43;;;;;;;7.13;2.43;;;14.30;99.90;;;;;;5028185;28;20493;-78
2021/12/31 05:09:10;;;;;;;3.60;1.13;;;14.30;99.90;;;;;;5032245;28;20459;-79
2021/12/31 05:11:37;;;;;;;2.67;1.37;;;14.30;99.90;;;;;;5033245;28;20448;-79
2021/12/31 05:14:05;;;;;;;3.13;1.20;;;14.30;99.90;;;;;;5033772;28;20603;-78
2021/12/31 05:16:35;;;;;;;3.80;1.53;;;14.30;99.90;;;;;;5034254;28;20456;-79
2021/12/31 05:19:02;;;;;;;2.77;1.30;;;14.20;99.90;;;;;;5034180;28;21215;-78
2021/12/31 05:21:29;;;;;;;3.50;1.20;;;14.20;99.90;;;;;;5024045;28;20456;-78
2021/12/31 05:23:56;;;;;;;4.50;1.50;;;14.20;99.90;;;;;;5033162;28;20472;-78
2021/12/31 05:26:23;;;;;;;3.63;1.30;;;14.20;99.90;;;;;;5041690;28;20986;-79
2021/12/31 05:28:49;;;;;;;3.00;1.50;;;14.20;99.90;;;;;;5052750;28;20455;-78
2021/12/31 05:31:18;;;;;;;2.93;1.47;;;14.20;99.90;;;;;;5042921;28;20455;-79
2021/12/31 05:33:44;;;;;;;4.17;1.83;;;14.10;99.90;;;;;;5034899;28;20480;-78
2021/12/31 05:36:11;;;;;;;5.30;1.50;;;14.10;99.90;;;;;;5032789;28;20448;-79
2021/12/31 05:38:38;;;;;;;4.20;1.60;;;14.20;99.90;;;;;;5033417;28;20842;-77
2021/12/31 05:41:05;;;;;;;5.37;1.27;;;14.20;99.90;;;;;;5036631;28;20842;-78
2021/12/31 05:43:32;;;;;;;4.80;1.27;;;14.20;99.90;;;;;;5053377;28;20470;-79
2021/12/31 05:45:59;;;;;;;4.00;1.10;;;14.10;99.90;;;;;;5036076;28;20477;-78
2021/12/31 05:48:27;;;;;;;3.10;1.70;;;14.10;99.90;;;;;;5032903;28;20452;-78
2021/12/31 05:50:54;;;;;;;3.63;1.40;;;14.10;99.90;;;;;;5032047;28;20508;-78
2021/12/31 05:53:21;;;;;;;3.13;1.10;;;14.10;99.90;;;;;;5033399;28;20484;-79
2021/12/31 05:55:47;;;;;;;2.73;1.10;;;14.10;99.90;;;;;;5045658;28;20452;-81
2021/12/31 05:58:14;;;;;;;3.50;1.20;;;14.20;99.90;;;;;;5049468;28;20788;-82
2021/12/31 06:00:41;;;;;;;3.30;1.53;;;14.10;99.90;;;;;;5053651;28;20465;-83
2021/12/31 06:03:08;;;;;;;4.37;1.60;;;14.10;99.90;;;;;;5048515;28;20474;-84
2021/12/31 06:05:36;;;;;;;7.00;1.47;;;14.00;99.90;;;;;;5038933;28;20471;-82
2021/12/31 06:08:03;;;;;;;6.13;1.33;;;14.00;99.90;;;;;;5041540;28;20492;-82
2021/12/31 06:10:32;;;;;;;2.23;1.40;;;14.00;99.90;;;;;;5036885;28;20457;-77
2021/12/31 06:13:01;;;;;;;4.43;1.20;;;14.00;99.90;;;;;;5042577;28;20505;-77
2021/12/31 06:15:29;;;;;;;7.53;1.70;;;14.00;99.90;;;;;;5054125;28;20978;-77
2021/12/31 06:17:56;;;;;;;3.70;1.10;;;14.00;99.90;;;;;;5036615;28;20456;-78
2021/12/31 06:20:24;;;;;;;2.90;1.10;;;14.00;99.90;;;;;;5037528;28;20452;-78
2021/12/31 06:22:52;;;;;;;3.50;1.03;;;14.10;99.90;;;;;;5033558;28;20459;-77
2021/12/31 06:25:19;;;;;;;2.13;1.10;;;14.10;99.90;;;;;;5034854;28;20450;-77
2021/12/31 06:27:46;;;;;;;2.13;1.10;;;14.20;99.90;;;;;;5034319;28;20496;-77
2021/12/31 06:30:13;;;;;;;2.80;1.40;;;14.20;99.90;;;;;;5033733;28;20456;-79
2021/12/31 06:32:39;;;;;;;3.37;1.17;;;14.20;99.90;;;;;;5038116;28;20444;-79
2021/12/31 06:35:07;;;;;;;2.70;1.40;;;14.20;99.90;;;;;;5037866;28;20463;-79
2021/12/31 06:37:34;;;;;;;3.60;1.30;;;14.20;99.90;;;;;;5035968;28;20444;-77
2021/12/31 06:40:05;;;;;;;5.47;1.47;;;14.30;99.90;;;;;;5033177;28;20469;-77
2021/12/31 06:42:32;;;;;;;4.50;1.30;;;14.30;99.90;;;;;;5033872;28;20469;-77
2021/12/31 06:44:59;;;;;;;2.03;1.10;;;14.20;99.90;;;;;;5034114;28;20471;-77
2021/12/31 06:47:25;;;;;;;3.80;1.50;;;14.20;99.90;;;;;;5033799;28;20483;-77
2021/12/31 06:49:52;;;;;;;2.70;1.27;;;14.20;99.90;;;;;;5033134;28;20463;-76
2021/12/31 06:52:19;;;;;;;2.40;1.13;;;14.10;99.90;;;;;;5034438;28;20973;-77
2021/12/31 06:54:47;;;;;;;4.03;1.20;;;14.00;99.90;;;;;;5033616;28;20471;-77
2021/12/31 06:57:15;;;;;;;3.27;1.30;;;14.00;99.90;;;;;;5033365;28;21023;-78
2021/12/31 06:59:41;;;;;;;3.27;1.67;;;13.90;99.90;;;;;;5033211;28;20460;-76
2021/12/31 07:02:08;;;;;;;2.80;1.20;;;13.80;99.90;;;;;;5032555;28;20464;-77
2021/12/31 07:04:35;;;;;;;8.53;1.33;;;13.90;99.90;;;;;;5033215;28;20852;-77
2021/12/31 07:07:02;;;;;;;4.87;1.40;;;13.80;99.90;;;;;;5032984;28;21061;-78
2021/12/31 07:09:28;;;;;;;2.33;1.20;;;13.80;99.90;;;;;;5033318;28;20455;-77
2021/12/31 07:11:55;;;;;;;3.90;1.43;;;13.80;99.90;;;;;;5032304;28;20451;-76
2021/12/31 07:14:23;;;;;;;3.07;1.27;;;13.80;99.90;;;;;;5033890;28;20480;-79
2021/12/31 07:16:50;;;;;;;5.30;2.00;;;13.80;99.90;;;;;;5018812;28;20460;-76
2021/12/31 07:19:17;;;;;;;5.20;1.93;;;13.80;99.90;;;;;;5040155;28;20460;-77
2021/12/31 07:21:44;;;;;;;2.77;1.37;;;13.80;99.90;;;;;;5025470;28;20453;-76
2021/12/31 07:24:10;;;;;;;7.67;1.63;;;13.80;99.90;;;;;;5033481;28;20844;-78
2021/12/31 07:26:37;;;;;;;4.43;1.30;;;13.70;99.90;;;;;;5033645;28;20477;-77
2021/12/31 07:29:04;;;;;;;3.17;1.50;;;13.70;99.90;;;;;;5032349;28;20478;-76
2021/12/31 07:31:32;;;;;;;4.93;1.53;;;13.70;99.90;;;;;;5038191;28;20476;-78
2021/12/31 07:33:59;;;;;;;5.13;1.67;;;13.60;99.90;;;;;;5033111;28;20475;-77
2021/12/31 07:36:27;;;;;;;3.50;1.20;;;13.50;99.90;;;;;;5032414;28;20455;-78
2021/12/31 07:39:00;;;;;;;4.30;1.73;;;13.50;99.90;;;;;;5028505;28;20968;-78
2021/12/31 07:41:27;;;;;;;3.97;2.10;;;13.50;99.90;;;;;;5033722;28;20450;-77
2021/12/31 07:43:54;;;;;;;4.13;1.63;;;13.50;99.90;;;;;;5030445;28;20467;-79
2021/12/31 07:46:21;;;;;;;5.07;1.40;;;13.50;99.90;;;;;;5036113;28;20463;-77
2021/12/31 07:48:49;;;;;;;2.33;1.50;;;13.40;99.90;;;;;;5033244;28;20925;-78
2021/12/31 07:51:16;;;;;;;2.93;1.40;;;13.40;99.90;;;;;;5030732;28;21001;-78
2021/12/31 07:53:45;;;;;;;2.83;1.80;;;13.40;99.90;;;;;;5030789;28;20472;-79
2021/12/31 07:56:12;;;;;;;5.40;1.40;;;13.40;99.90;;;;;;5032602;28;20457;-76
2021/12/31 07:58:39;;;;;;;4.10;1.50;;;13.40;99.90;;;;;;5027433;28;20875;-77
2021/12/31 08:01:06;;;;;;;3.70;1.40;;;13.30;99.90;;;;;;5030056;28;20447;-78
2021/12/31 08:03:35;;;;;;;4.07;1.63;;;13.30;99.90;;;;;;5022866;28;20852;-78
2021/12/31 08:06:03;;;;;;;3.67;1.40;;;13.30;99.90;;;;;;5026777;28;20851;-77
2021/12/31 08:08:30;;;;;;;4.17;1.30;;;13.30;99.90;;;;;;5024948;28;20491;-78
2021/12/31 08:10:57;;;;;;;3.47;1.83;;;13.30;99.90;;;;;;5022028;28;20510;-77
2021/12/31 08:13:24;;;;;;;2.83;1.50;;;13.30;99.90;;;;;;5028147;28;20477;-77
2021/12/31 08:15:51;;;;;;;5.93;2.13;;;13.30;99.90;;;;;;5028397;28;20464;-77
2021/12/31 08:18:18;;;;;;;2.43;1.50;;;13.40;99.90;;;;;;5030113;28;20449;-78
2021/12/31 08:20:45;;;;;;;3.80;1.10;;;13.30;99.90;;;;;;5029402;28;20450;-77
2021/12/31 08:23:13;;;;;;;4.43;1.53;;;13.30;99.90;;;;;;5037545;28;20471;-78
2021/12/31 08:25:41;;;;;;;3.03;1.30;;;13.40;99.90;;;;;;5030433;28;20486;-78
2021/12/31 08:28:08;;;;;;;3.03;1.47;;;13.40;99.90;;;;;;5037195;28;21013;-79
2021/12/31 08:30:35;;;;;;;3.10;1.40;;;13.40;99.90;;;;;;5029652;28;20468;-79
2021/12/31 08:33:02;;;;;;;4.10;1.13;;;13.40;99.90;;;;;;5032647;28;20840;-80
2021/12/31 08:35:29;;;;;;;3.47;1.70;;;13.40;99.90;;;;;;5033578;28;20461;-78
2021/12/31 08:37:56;;;;;;;5.07;1.87;;;13.30;99.90;;;;;;5034544;28;20456;-78
2021/12/31 08:40:25;;;;;;;2.50;1.30;;;13.20;99.90;;;;;;5024750;28;20481;-78
2021/12/31 08:42:52;;;;;;;3.00;1.47;;;13.30;99.90;;;;;;5032252;28;20452;-78
2021/12/31 08:45:19;;;;;;;3.27;1.50;;;13.30;99.90;;;;;;5036921;28;20998;-79
2021/12/31 08:47:46;;;;;;;2.47;1.30;;;13.30;99.90;;;;;;5035249;28;20484;-79
2021/12/31 08:50:13;;;;;;;5.20;1.67;;;13.30;99.90;;;;;;5038480;28;20457;-78
2021/12/31 08:52:40;;;;;;;4.83;1.53;;;13.30;99.90;;;;;;5035749;28;20826;-78
2021/12/31 08:55:09;;;;;;;5.30;1.60;;;13.30;99.90;;;;;;5039380;28;20475;-78
2021/12/31 08:57:37;;;;;;;2.50;1.33;;;13.40;99.90;;;;;;5032908;28;20466;-79
2021/12/31 09:00:05;;;;;;;2.90;1.27;;;13.40;99.90;;;;;;5039484;28;20826;-79
2021/12/31 09:02:32;;;;;;;3.10;1.43;;;13.50;99.90;;;;;;5028260;28;20474;-79
2021/12/31 09:04:58;;;;;;;3.23;1.30;;;13.50;99.90;;;;;;5033768;28;20478;-79
2021/12/31 09:07:26;;;;;;;4.30;1.80;;;13.50;99.90;;;;;;5039975;28;20480;-79
2021/12/31 09:09:53;;;;;;;3.53;1.50;;;13.50;99.90;;;;;;5018267;28;20477;-79
2021/12/31 09:12:20;;;;;;;2.73;1.57;;;13.50;99.90;;;;;;5033163;28;20459;-79
2021/12/31 09:14:48;;;;;;;3.00;1.37;;;13.50;99.90;;;;;;5033283;28;20569;-79
2021/12/31 09:17:15;;;;;;;3.80;1.83;;;13.60;99.90;;;;;;5050105;28;20449;-77
2021/12/31 09:19:42;;;;;;;3.40;1.60;;;13.70;99.90;;;;;;5050320;28;20441;-78
2021/12/31 09:22:09;;;;;;;2.73;1.30;;;13.70;99.90;;;;;;5043338;28;20453;-80
2021/12/31 09:24:36;;;;;;;4.10;1.60;;;13.90;99.90;;;;;;5042600;28;20488;-80
2021/12/31 09:27:03;;;;;;;3.60;1.33;;;13.80;99.90;;;;;;5033766;28;20953;-79
2021/12/31 09:29:30;;;;;;;2.77;1.40;;;13.90;99.90;;;;;;5040869;28;20468;-80
2021/12/31 09:31:58;;;;;;;3.30;1.80;;;13.90;99.90;;;;;;5049449;28;20987;-80
2021/12/31 09:34:25;;;;;;;2.80;1.27;;;13.90;99.90;;;;;;5033073;28;20474;-79
2021/12/31 09:36:52;;;;;;;2.83;1.40;;;13.80;99.90;;;;;;5033318;28;20449;-78
2021/12/31 09:39:19;;;;;;;2.40;1.37;;;13.90;99.90;;;;;;5037674;28;20459;-81
2021/12/31 09:41:46;;;;;;;3.80;1.50;;;14.10;99.90;;;;;;5052162;28;20458;-79
2021/12/31 09:44:14;;;;;;;3.43;1.43;;;14.10;99.90;;;;;;5040674;28;20470;-81
2021/12/31 09:46:41;;;;;;;2.87;1.70;;;14.10;99.90;;;;;;5042808;28;20831;-81
2021/12/31 09:49:09;;;;;;;2.37;1.50;;;14.20;99.90;;;;;;5039420;28;20493;-79
2021/12/31 09:51:41;;;;;;;3.60;1.30;;;14.10;99.90;;;;;;5056677;28;20455;-80
2021/12/31 09:54:08;;;;;;;4.43;1.73;;;14.10;99.90;;;;;;5036733;28;20489;-80
2021/12/31 09:56:39;;;;;;;3.83;1.30;;;14.20;99.90;;;;;;5038993;28;20453;-80
2021/12/31 09:59:06;;;;;;;3.10;1.50;;;14.00;99.90;;;;;;5055826;28;20469;-80
2021/12/31 10:01:32;;;;;;;2.57;1.43;;;13.90;99.90;;;;;;5057444;28;20448;-81
2021/12/31 10:04:00;;;;;;;2.10;1.27;;;13.80;99.90;;;;;;5038926;28;20493;-80
2021/12/31 10:06:28;;;;;;;2.87;1.27;;;13.90;99.90;;;;;;5038291;28;20458;-79
2021/12/31 10:08:59;;;;;;;7.40;1.70;;;14.00;99.90;;;;;;5037956;28;20495;-80
2021/12/31 10:11:26;;;;;;;2.40;1.23;;;14.00;99.90;;;;;;5037420;28;20464;-80
2021/12/31 10:13:57;;;;;;;2.57;1.30;;;14.10;99.90;;;;;;5039451;28;20475;-80
2021/12/31 10:16:26;;;;;;;2.90;1.40;;;14.10;99.90;;;;;;5038306;28;20453;-81
2021/12/31 10:19:06;;;;;;;2.20;1.20;;;14.10;99.90;;;;;;5038962;28;20447;-80
2021/12/31 10:21:41;;;;;;;3.50;1.30;;;14.20;99.90;;;;;;5036943;28;20456;-79
2021/12/31 10:24:33;;;;;;;4.83;1.43;;;14.20;99.90;;;;;;5037337;28;20471;-80
2021/12/31 10:27:03;;;;;;;3.60;1.50;;;14.30;99.90;;;;;;5053387;28;20528;-83
2021/12/31 10:29:31;;;;;;;4.80;1.57;;;14.30;99.90;;;;;;5053619;28;21284;-80
2021/12/31 10:31:58;;;;;;;3.10;1.73;;;14.40;99.90;;;;;;5036511;28;20459;-81
2021/12/31 10:34:30;;;;;;;2.23;1.13;;;14.40;99.90;;;;;;5037097;28;20485;-81
2021/12/31 10:37:00;;;;;;;3.17;1.43;;;14.40;99.90;;;;;;5038142;28;20456;-82
2021/12/31 10:39:28;;;;;;;2.70;1.30;;;14.30;99.90;;;;;;5030466;28;20442;-80
2021/12/31 10:42:06;;;;;;;4.17;1.87;;;14.40;99.90;;;;;;5043282;28;20457;-82
2021/12/31 10:44:47;;;;;;;2.30;1.37;;;14.60;99.90;;;;;;5036963;28;20941;-81
2021/12/31 10:47:16;;;;;;;4.13;1.40;;;14.60;99.90;;;;;;5021413;28;20450;-80
2021/12/31 10:50:08;;;;;;;2.67;1.70;;;14.50;99.90;;;;;;5041870;28;20465;-81
2021/12/31 10:52:40;;;;;;;6.93;2.10;;;14.50;99.90;;;;;;5027185;28;20454;-80
2021/12/31 10:55:17;;;;;;;4.33;1.40;;;14.50;99.90;;;;;;5036744;28;20494;-79
2021/12/31 10:57:46;;;;;;;2.50;1.67;;;14.50;99.90;;;;;;5052166;28;20451;-79
2021/12/31 11:00:14;;;;;;;2.77;1.23;;;14.50;99.90;;;;;;5037027;28;20448;-78
2021/12/31 11:02:42;;;;;;;3.30;1.40;;;14.40;99.90;;;;;;5054733;28;20470;-78
2021/12/31 11:05:11;;;;;;;3.07;2.10;;;14.40;99.90;;;;;;5048984;28;20905;-78
2021/12/31 11:07:41;;;;;;;3.00;1.60;;;14.50;99.90;;;;;;5035305;28;20468;-80
2021/12/31 11:10:09;;;;;;;2.83;1.70;;;14.70;99.90;;;;;;5033898;28;20528;-78
2021/12/31 11:12:37;;;;;;;3.17;1.73;;;14.60;99.90;;;;;;5034905;28;20802;-78
2021/12/31 11:15:05;;;;;;;4.07;1.70;;;14.70;99.90;;;;;;5034969;28;21015;-78
2021/12/31 11:17:32;;;;;;;2.60;1.40;;;14.50;99.90;;;;;;5034264;28;20466;-78
2021/12/31 11:20:00;;;;;;;4.17;1.50;;;14.50;99.90;;;;;;5041655;28;20511;-79
2021/12/31 11:22:29;;;;;;;3.00;1.57;;;14.30;99.90;;;;;;5050979;28;20460;-78
2021/12/31 11:25:20;;;;;;;5.03;1.60;;;14.30;99.90;;;;;;5037739;28;20476;-78
2021/12/31 11:27:48;;;;;;;3.20;1.50;;;14.00;99.90;;;;;;5035117;28;20521;-77
2021/12/31 11:30:26;;;;;;;2.67;1.40;;;14.00;99.90;;;;;;5038386;28;20487;-78
2021/12/31 11:32:56;;;;;;;2.83;1.27;;;14.00;99.90;;;;;;5033561;28;20811;-78
2021/12/31 11:35:44;;;;;;;2.60;1.40;;;13.90;99.90;;;;;;5033067;28;20472;-78
2021/12/31 11:38:15;;;;;;;4.40;1.43;;;14.00;99.90;;;;;;5021231;28;20731;-78
2021/12/31 11:40:50;;;;;;;4.07;1.93;;;13.90;99.90;;;;;;5029099;28;20952;-78
2021/12/31 11:43:27;;;;;;;3.97;2.03;;;14.00;99.90;;;;;;5035137;28;20475;-78
2021/12/31 11:46:33;;;;;;;5.00;1.70;;;14.00;99.90;;;;;;5038911;28;20827;-77
2021/12/31 11:49:01;;;;;;;4.30;1.40;;;14.10;99.90;;;;;;5034765;28;20522;-78
2021/12/31 11:51:33;;;;;;;3.67;1.37;;;14.10;99.90;;;;;;5032726;28;20492;-77
2021/12/31 11:54:18;;;;;;;4.00;1.77;;;14.10;99.90;;;;;;5032966;28;20575;-78
2021/12/31 11:57:00;;;;;;;4.17;1.80;;;14.30;99.90;;;;;;5041564;28;20446;-78
2021/12/31 11:59:32;;;;;;;3.77;1.60;;;14.30;99.90;;;;;;5024794;28;20454;-79
2021/12/31 12:02:17;;;;;;;3.10;1.80;;;14.30;99.90;;;;;;5039294;28;20462;-78
2021/12/31 12:05:07;;;;;;;4.20;1.60;;;14.20;99.90;;;;;;5031367;28;20618;-80
2021/12/31 12:07:38;;;;;;;4.63;1.70;;;14.30;99.90;;;;;;5025389;28;20464;-79
2021/12/31 12:10:17;;;;;;;3.40;1.77;;;14.50;99.90;;;;;;5031960;28;20443;-79
2021/12/31 12:12:49;;;;;;;2.03;1.47;;;14.80;99.90;;;;;;5030603;28;20466;-78
2021/12/31 12:15:33;;;;;;;3.43;1.50;;;15.00;99.90;;;;;;5033883;28;20480;-80
2021/12/31 12:18:06;;;;;;;2.90;1.50;;;15.00;99.90;;;;;;5034893;28;20452;-79
2021/12/31 12:20:35;;;;;;;3.33;1.20;;;15.10;99.90;;;;;;5034896;28;20454;-81
2021/12/31 12:23:02;;;;;;;2.63;1.50;;;15.10;99.90;;;;;;5033806;28;20445;-80
2021/12/31 12:25:30;;;;;;;4.77;2.60;;;15.30;99.90;;;;;;5036417;28;21025;-80
2021/12/31 12:28:03;;;;;;;3.30;1.40;;;15.30;99.90;;;;;;5032077;28;20445;-79
2021/12/31 12:30:31;;;;;;;2.53;1.43;;;15.30;99.90;;;;;;5029638;28;20471;-78
2021/12/31 12:33:08;;;;;;;2.50;1.40;;;15.50;99.90;;;;;;5032644;28;20525;-80
2021/12/31 12:35:37;;;;;;;2.10;1.20;;;15.60;99.90;;;;;;5032809;28;20513;-79
2021/12/31 12:38:06;;;;;;;3.00;1.40;;;15.80;99.90;;;;;;5033179;28;20447;-81
2021/12/31 12:40:38;;;;;;;2.87;1.60;;;15.60;99.90;;;;;;5031465;28;20992;-78
2021/12/31 12:43:09;;;;;;;3.03;1.20;;;15.30;99.90;;;;;;5043109;28;20459;-80
2021/12/31 12:45:39;;;;;;;2.47;1.50;;;15.30;99.90;;;;;;5039401;28;20449;-81
2021/12/31 12:48:07;;;;;;;2.13;1.33;;;15.30;99.90;;;;;;5034182;28;20458;-80
2021/12/31 12:50:33;;;;;;;3.03;1.40;;;15.30;99.90;;;;;;5021163;28;20487;-80
2021/12/31 12:53:00;;;;;;;2.97;1.40;;;15.50;99.90;;;;;;5032650;28;20440;-80
2021/12/31 12:55:28;;;;;;;3.07;1.47;;;15.60;99.90;;;;;;5031679;28;20457;-79